Time;durP1;ratioP1;P1;durP2;ratioP2;P2;SDS_P1;SDS_P2;PMS_P1;PMS_P2;Temp;Humidity;BMP_temperature;BMP_pressure;BME280_temperature;BME280_humidity;BME280_pressure;Samples;Min_cycle;Max_cycle;Signal;HPM_P1;HPM_P2
2021/09/05 00:00:22;;;;;;;3.60;3.30;;;19.60;99.90;;;;;;5016952;28;20363;-74
2021/09/05 00:02:49;;;;;;;3.30;3.10;;;19.50;99.90;;;;;;5029515;28;20288;-74
2021/09/05 00:05:16;;;;;;;3.63;3.08;;;19.50;99.90;;;;;;5028741;28;20662;-75
2021/09/05 00:07:44;;;;;;;3.28;3.05;;;19.50;99.90;;;;;;5029082;28;20215;-74
2021/09/05 00:10:12;;;;;;;3.50;3.20;;;19.40;99.90;;;;;;5031577;28;20281;-75
2021/09/05 00:12:39;;;;;;;3.95;3.03;;;19.40;99.90;;;;;;5033667;28;20280;-75
2021/09/05 00:15:09;;;;;;;3.58;2.90;;;19.30;99.90;;;;;;5030495;28;20288;-75
2021/09/05 00:17:36;;;;;;;3.42;3.13;;;19.30;99.90;;;;;;5028785;28;20294;-75
2021/09/05 00:20:03;;;;;;;3.72;3.35;;;19.30;99.90;;;;;;5032196;28;20973;-76
2021/09/05 00:22:31;;;;;;;3.75;3.45;;;19.30;99.90;;;;;;5036396;28;20642;-75
2021/09/05 00:24:59;;;;;;;3.03;2.83;;;19.30;99.90;;;;;;5027195;28;20713;-74
2021/09/05 00:27:26;;;;;;;3.40;3.10;;;19.40;99.90;;;;;;5031783;28;20596;-75
2021/09/05 00:29:53;;;;;;;3.10;2.90;;;19.40;99.90;;;;;;5032458;28;20239;-75
2021/09/05 00:32:20;;;;;;;3.40;3.10;;;19.40;99.90;;;;;;5039005;28;20649;-75
2021/09/05 00:34:47;;;;;;;3.50;3.20;;;19.40;99.90;;;;;;5032311;28;20252;-74
2021/09/05 00:37:14;;;;;;;3.53;3.22;;;19.40;99.90;;;;;;5036107;28;20229;-75
2021/09/05 00:39:41;;;;;;;4.32;3.05;;;19.30;99.90;;;;;;5034719;28;20226;-75
2021/09/05 00:42:09;;;;;;;3.40;3.10;;;19.30;99.90;;;;;;5033513;28;20227;-72
2021/09/05 00:44:36;;;;;;;3.97;3.67;;;19.30;99.90;;;;;;5031878;28;20235;-75
2021/09/05 00:47:04;;;;;;;3.30;3.00;;;19.30;99.90;;;;;;5029991;28;22104;-74
2021/09/05 00:49:31;;;;;;;4.10;3.45;;;19.20;99.90;;;;;;5039471;28;20219;-75
2021/09/05 00:51:58;;;;;;;3.78;3.47;;;19.30;99.90;;;;;;5040836;28;20284;-74
2021/09/05 00:54:25;;;;;;;3.75;3.45;;;19.30;99.90;;;;;;5031199;28;20231;-75
2021/09/05 00:56:52;;;;;;;3.47;3.10;;;19.20;99.90;;;;;;5035429;28;20599;-75
2021/09/05 00:59:22;;;;;;;3.45;3.15;;;19.20;99.90;;;;;;5038076;28;20243;-74
2021/09/05 01:01:49;;;;;;;3.30;3.10;;;19.20;99.90;;;;;;5035202;28;20597;-74
2021/09/05 01:04:17;;;;;;;3.70;3.40;;;19.20;99.90;;;;;;5032374;28;20712;-75
2021/09/05 01:06:44;;;;;;;3.50;3.20;;;19.20;99.90;;;;;;5029730;28;20297;-74
2021/09/05 01:09:12;;;;;;;3.50;3.20;;;19.20;99.90;;;;;;5033362;28;20349;-74
2021/09/05 01:11:39;;;;;;;4.15;3.65;;;19.20;99.90;;;;;;5033636;28;20231;-75
2021/09/05 01:14:07;;;;;;;3.63;3.33;;;19.20;99.90;;;;;;5032670;28;20218;-75
2021/09/05 01:16:38;;;;;;;3.40;3.17;;;19.20;99.90;;;;;;5027846;28;20261;-75
2021/09/05 01:19:06;;;;;;;3.45;3.15;;;19.20;99.90;;;;;;5030224;28;20272;-75
2021/09/05 01:21:34;;;;;;;3.70;3.40;;;19.10;99.90;;;;;;5041839;28;20234;-75
2021/09/05 01:24:01;;;;;;;3.50;3.20;;;19.10;99.90;;;;;;5032431;28;20907;-75
2021/09/05 01:26:29;;;;;;;3.40;3.10;;;19.10;99.90;;;;;;5034234;28;20223;-75
2021/09/05 01:28:59;;;;;;;3.38;3.08;;;19.00;99.90;;;;;;5032231;28;20227;-74
2021/09/05 01:31:27;;;;;;;3.50;3.20;;;19.00;99.90;;;;;;5031579;28;20609;-75
2021/09/05 01:33:54;;;;;;;3.75;3.45;;;19.00;99.90;;;;;;5033949;28;20231;-74
2021/09/05 01:36:21;;;;;;;3.88;3.47;;;19.10;99.90;;;;;;5030728;28;20697;-74
2021/09/05 01:38:48;;;;;;;3.83;3.53;;;19.10;99.90;;;;;;5031995;28;20273;-75
2021/09/05 01:41:15;;;;;;;3.55;3.30;;;19.10;99.90;;;;;;5032455;28;20228;-75
2021/09/05 01:43:42;;;;;;;3.53;3.22;;;19.00;99.90;;;;;;5029605;28;20293;-75
2021/09/05 01:46:10;;;;;;;3.92;3.63;;;19.00;99.90;;;;;;5034117;28;20227;-75
2021/09/05 01:48:37;;;;;;;3.70;3.40;;;19.00;99.90;;;;;;5035317;28;20235;-75
2021/09/05 01:51:04;;;;;;;3.80;3.50;;;19.00;99.90;;;;;;5029436;28;20289;-75
2021/09/05 01:53:31;;;;;;;3.80;3.50;;;19.00;99.90;;;;;;5031574;28;20226;-74
2021/09/05 01:55:58;;;;;;;4.05;3.55;;;18.90;99.90;;;;;;5028279;28;20301;-75
2021/09/05 01:58:25;;;;;;;4.03;3.72;;;18.90;99.90;;;;;;5031377;28;20228;-75
2021/09/05 02:00:52;;;;;;;3.83;3.53;;;18.80;99.90;;;;;;5029858;28;20646;-73
2021/09/05 02:03:21;;;;;;;4.10;3.70;;;18.70;99.90;;;;;;5031296;28;20491;-74
2021/09/05 02:05:48;;;;;;;4.22;3.50;;;18.70;99.90;;;;;;5038340;28;20216;-75
2021/09/05 02:08:15;;;;;;;3.70;3.40;;;18.70;99.90;;;;;;5033002;28;20273;-75
2021/09/05 02:10:42;;;;;;;3.95;3.53;;;18.70;99.90;;;;;;5030880;28;20223;-75
2021/09/05 02:13:09;;;;;;;3.63;3.33;;;18.70;99.90;;;;;;5035645;28;20227;-75
2021/09/05 02:15:36;;;;;;;3.88;3.58;;;18.70;99.90;;;;;;5032527;28;20631;-75
2021/09/05 02:18:03;;;;;;;5.10;3.40;;;18.70;99.90;;;;;;5033690;28;20227;-75
2021/09/05 02:20:31;;;;;;;4.13;3.40;;;18.70;99.90;;;;;;5031348;28;20219;-74
2021/09/05 02:22:59;;;;;;;4.18;3.30;;;18.60;99.90;;;;;;5036387;28;20227;-75
2021/09/05 02:25:26;;;;;;;3.67;3.38;;;18.60;99.90;;;;;;5038081;28;20219;-77
2021/09/05 02:27:53;;;;;;;4.03;3.42;;;18.60;99.90;;;;;;5027860;28;20278;-76
2021/09/05 02:30:20;;;;;;;3.65;3.35;;;18.60;99.90;;;;;;5038232;28;20288;-76
2021/09/05 02:32:47;;;;;;;4.18;3.58;;;18.50;99.90;;;;;;5034082;28;20285;-77
2021/09/05 02:35:14;;;;;;;3.88;3.58;;;18.50;99.90;;;;;;5032599;28;20787;-77
2021/09/05 02:37:42;;;;;;;3.40;3.20;;;18.50;99.90;;;;;;5033848;28;20230;-77
2021/09/05 02:40:10;;;;;;;3.80;3.50;;;18.40;99.90;;;;;;5030947;28;20296;-75
2021/09/05 02:42:37;;;;;;;3.67;3.38;;;18.40;99.90;;;;;;5031732;28;20302;-77
2021/09/05 02:45:07;;;;;;;4.05;3.67;;;18.40;99.90;;;;;;5030661;28;20227;-77
2021/09/05 02:47:34;;;;;;;3.83;3.53;;;18.30;99.90;;;;;;5026599;28;20284;-77
2021/09/05 02:50:02;;;;;;;3.88;3.58;;;18.30;99.90;;;;;;5025659;28;20288;-77
2021/09/05 02:52:29;;;;;;;4.63;3.45;;;18.30;99.90;;;;;;5034431;28;20223;-77
2021/09/05 02:54:57;;;;;;;3.70;3.40;;;18.30;99.90;;;;;;5030797;28;20685;-76
2021/09/05 02:57:24;;;;;;;4.30;3.90;;;18.30;99.90;;;;;;5030105;28;20223;-77
2021/09/05 02:59:51;;;;;;;3.60;2.90;;;18.40;99.90;;;;;;5036627;28;20277;-77
2021/09/05 03:02:18;;;;;;;4.00;3.60;;;18.40;99.90;;;;;;5029992;28;20235;-77
2021/09/05 03:04:45;;;;;;;3.83;3.53;;;18.30;99.90;;;;;;5032755;28;20223;-76
2021/09/05 03:07:12;;;;;;;4.00;3.65;;;18.30;99.90;;;;;;5027895;28;20877;-77
2021/09/05 03:09:40;;;;;;;3.50;3.20;;;18.40;99.90;;;;;;5029944;28;20220;-77
2021/09/05 03:12:09;;;;;;;3.95;3.65;;;18.40;99.90;;;;;;5028494;28;20758;-77
2021/09/05 03:14:36;;;;;;;3.92;3.58;;;18.40;99.90;;;;;;5027659;28;20276;-77
2021/09/05 03:17:03;;;;;;;3.90;3.50;;;18.40;99.90;;;;;;5028679;28;20228;-78
2021/09/05 03:19:30;;;;;;;4.35;3.83;;;18.40;99.90;;;;;;5032037;28;20245;-77
2021/09/05 03:21:57;;;;;;;3.58;3.28;;;18.40;99.90;;;;;;5033540;28;20280;-77
2021/09/05 03:24:24;;;;;;;3.95;3.65;;;18.30;99.90;;;;;;5036208;28;20651;-77
2021/09/05 03:26:51;;;;;;;3.70;3.40;;;18.30;99.90;;;;;;5029483;28;20219;-77
2021/09/05 03:29:20;;;;;;;3.83;3.53;;;18.40;99.90;;;;;;5032380;28;20227;-77
2021/09/05 03:31:47;;;;;;;3.70;3.40;;;18.40;99.90;;;;;;5032988;28;20288;-77
2021/09/05 03:34:14;;;;;;;3.97;3.63;;;18.30;99.90;;;;;;5031613;28;20265;-77
2021/09/05 03:36:41;;;;;;;4.10;3.80;;;18.30;99.90;;;;;;5031429;28;20284;-77
2021/09/05 03:39:08;;;;;;;4.15;3.78;;;18.30;99.90;;;;;;5029359;28;20229;-76
2021/09/05 03:41:35;;;;;;;4.18;3.88;;;18.30;99.90;;;;;;5033425;28;20770;-76
2021/09/05 03:44:02;;;;;;;3.63;3.33;;;18.30;99.90;;;;;;5029541;28;20280;-77
2021/09/05 03:46:30;;;;;;;3.10;2.90;;;18.30;99.90;;;;;;5029968;28;20945;-77
2021/09/05 03:48:57;;;;;;;3.90;3.60;;;18.30;99.90;;;;;;5029022;28;20679;-76
2021/09/05 03:51:24;;;;;;;3.50;3.30;;;18.20;99.90;;;;;;5033763;28;20233;-76
2021/09/05 03:53:51;;;;;;;4.03;3.72;;;18.20;99.90;;;;;;5031149;28;20243;-76
2021/09/05 03:56:21;;;;;;;3.83;3.53;;;18.20;99.90;;;;;;5025739;28;20312;-75
2021/09/05 03:58:48;;;;;;;3.60;3.30;;;18.10;99.90;;;;;;5035088;28;20227;-77
2021/09/05 04:01:15;;;;;;;3.50;3.20;;;18.10;99.90;;;;;;5030381;28;20626;-76
2021/09/05 04:03:43;;;;;;;3.20;3.00;;;18.10;99.90;;;;;;5035908;28;20231;-76
2021/09/05 04:06:10;;;;;;;3.72;3.42;;;18.10;99.90;;;;;;5032415;28;20234;-77
2021/09/05 04:08:42;;;;;;;4.03;3.72;;;18.00;99.90;;;;;;5029911;28;20238;-76
2021/09/05 04:11:09;;;;;;;3.78;3.45;;;18.00;99.90;;;;;;5033271;28;20222;-76
2021/09/05 04:13:36;;;;;;;3.45;3.20;;;18.10;99.90;;;;;;5035229;28;20231;-76
2021/09/05 04:16:03;;;;;;;3.83;3.53;;;18.10;99.90;;;;;;5039060;28;20235;-76
2021/09/05 04:18:30;;;;;;;2.90;2.70;;;18.10;99.90;;;;;;5030729;28;20678;-74
2021/09/05 04:21:00;;;;;;;3.75;3.45;;;18.00;99.90;;;;;;5031719;28;20218;-76
2021/09/05 04:23:27;;;;;;;4.00;3.70;;;18.00;99.90;;;;;;5035471;28;20228;-77
2021/09/05 04:25:54;;;;;;;3.67;3.38;;;17.90;99.90;;;;;;5029742;28;20226;-76
2021/09/05 04:28:21;;;;;;;3.95;3.58;;;18.00;99.90;;;;;;5030715;28;20230;-76
2021/09/05 04:30:48;;;;;;;3.30;3.05;;;18.00;99.90;;;;;;5034295;28;20215;-77
2021/09/05 04:33:15;;;;;;;3.65;3.35;;;18.00;99.90;;;;;;5032138;28;20771;-77
2021/09/05 04:35:42;;;;;;;3.70;3.22;;;17.90;99.90;;;;;;5029603;28;20600;-77
2021/09/05 04:38:10;;;;;;;3.10;2.90;;;18.00;99.90;;;;;;5033134;28;20231;-77
2021/09/05 04:40:37;;;;;;;3.88;3.47;;;17.90;99.90;;;;;;5037995;28;20283;-77
2021/09/05 04:43:04;;;;;;;3.53;3.22;;;17.90;99.90;;;;;;5039262;28;20276;-77
2021/09/05 04:45:31;;;;;;;3.58;3.28;;;17.80;99.90;;;;;;5035925;28;20269;-77
2021/09/05 04:47:58;;;;;;;3.92;3.63;;;17.80;99.90;;;;;;5032348;28;20576;-77
2021/09/05 04:50:25;;;;;;;3.38;3.08;;;17.80;99.90;;;;;;5028565;28;20223;-77
2021/09/05 04:52:52;;;;;;;3.28;3.03;;;17.80;99.90;;;;;;5033273;28;20235;-75
2021/09/05 04:55:21;;;;;;;3.67;3.38;;;17.90;99.90;;;;;;5031306;28;20227;-77
2021/09/05 04:57:48;;;;;;;5.30;3.08;;;17.90;99.90;;;;;;5029777;28;20223;-77
2021/09/05 05:00:16;;;;;;;3.63;3.33;;;17.90;99.90;;;;;;5036898;28;20265;-77
2021/09/05 05:02:43;;;;;;;3.55;3.25;;;17.90;99.90;;;;;;5038197;28;20288;-76
2021/09/05 05:05:11;;;;;;;3.03;2.83;;;17.90;99.90;;;;;;5031478;28;20214;-76
2021/09/05 05:07:38;;;;;;;4.22;3.85;;;18.00;99.90;;;;;;5034703;28;20227;-76
2021/09/05 05:10:06;;;;;;;3.40;3.10;;;18.00;99.90;;;;;;5030249;28;20238;-77
2021/09/05 05:12:35;;;;;;;4.05;3.65;;;18.10;99.90;;;;;;5027925;28;20872;-76
2021/09/05 05:15:02;;;;;;;3.50;3.20;;;18.00;99.90;;;;;;5027339;28;20771;-77
2021/09/05 05:17:29;;;;;;;7.32;3.58;;;18.10;99.90;;;;;;5032550;28;20313;-78
2021/09/05 05:19:56;;;;;;;5.57;3.78;;;18.20;99.90;;;;;;5035698;28;20231;-76
2021/09/05 05:22:23;;;;;;;3.80;3.50;;;18.30;99.90;;;;;;5035416;28;20231;-77
2021/09/05 05:24:50;;;;;;;3.45;3.15;;;18.30;99.90;;;;;;5031526;28;20640;-76
2021/09/05 05:27:17;;;;;;;3.80;3.33;;;18.30;99.90;;;;;;5029058;28;20229;-76
2021/09/05 05:29:46;;;;;;;3.78;3.47;;;18.50;99.90;;;;;;5032920;28;20223;-77
2021/09/05 05:32:13;;;;;;;3.67;3.38;;;18.70;99.90;;;;;;5029363;28;20231;-77
2021/09/05 05:34:41;;;;;;;3.50;3.20;;;18.90;99.90;;;;;;5032898;28;20860;-77
2021/09/05 05:37:08;;;;;;;3.50;3.20;;;19.00;99.90;;;;;;5029978;28;20653;-76
2021/09/05 05:39:35;;;;;;;4.40;4.00;;;19.20;99.90;;;;;;5026675;28;20219;-77
2021/09/05 05:42:02;;;;;;;4.47;3.38;;;19.30;99.90;;;;;;5029792;28;20234;-76
2021/09/05 05:44:29;;;;;;;3.40;3.10;;;19.50;99.90;;;;;;5027948;28;20281;-77
2021/09/05 05:46:57;;;;;;;3.55;3.25;;;19.70;99.90;;;;;;5034330;28;20624;-76
2021/09/05 05:49:24;;;;;;;3.63;3.33;;;19.80;99.90;;;;;;5034920;28;20223;-77
2021/09/05 06:48:14;;;;;;;3.60;3.28;;;21.40;99.90;;;;;;5240858;22;20222;-79
2021/09/05 06:50:42;;;;;;;3.83;3.53;;;21.50;99.90;;;;;;5068090;28;20217;-80
2021/09/05 06:53:09;;;;;;;3.55;3.25;;;21.50;99.90;;;;;;5055720;28;20238;-79
2021/09/05 06:55:36;;;;;;;3.30;3.00;;;21.40;99.90;;;;;;5050179;28;20238;-79
2021/09/05 06:58:03;;;;;;;3.00;2.80;;;21.40;99.90;;;;;;5047719;28;20791;-79
2021/09/05 07:00:31;;;;;;;3.40;3.10;;;21.50;99.90;;;;;;5038624;28;20639;-79
2021/09/05 07:02:58;;;;;;;3.33;3.08;;;21.70;99.90;;;;;;5048170;28;20223;-79
2021/09/05 07:05:26;;;;;;;3.88;2.90;;;21.80;99.90;;;;;;5047990;28;20309;-79
2021/09/05 07:07:54;;;;;;;3.40;3.10;;;21.90;99.90;;;;;;5055756;28;20252;-78
2021/09/05 07:10:21;;;;;;;3.63;3.10;;;21.90;99.90;;;;;;5067636;28;20234;-79
2021/09/05 07:12:49;;;;;;;3.42;3.15;;;21.90;99.90;;;;;;5066189;28;20222;-78
2021/09/05 07:15:16;;;;;;;4.07;3.67;;;22.00;99.90;;;;;;5067930;28;20221;-79
2021/09/05 07:17:43;;;;;;;3.72;3.10;;;22.00;99.90;;;;;;5052725;28;20223;-79
2021/09/05 07:20:12;;;;;;;3.72;3.30;;;22.10;99.90;;;;;;5028279;28;20227;-79
2021/09/05 07:25:57;;;;;;;3.53;3.22;;;22.10;99.90;;;;;;4993368;28;20801;-77
2021/09/05 08:02:53;;;;;;;3.83;3.42;;;23.50;99.90;;;;;;4877590;29;20239;-77
2021/09/05 08:05:20;;;;;;;3.60;3.33;;;23.40;99.90;;;;;;5007583;28;20227;-78
2021/09/05 09:12:39;;;;;;;3.75;3.38;;;25.40;99.90;;;;;;5685891;22;20205;-78
2021/09/05 09:15:19;;;;;;;3.95;3.40;;;25.50;99.90;;;;;;5090083;28;20226;-79
2021/09/05 09:17:50;;;;;;;3.83;3.30;;;25.60;99.90;;;;;;5089476;28;20663;-78
2021/09/05 09:20:48;;;;;;;3.85;3.45;;;25.70;99.90;;;;;;5096689;28;20675;-76
2021/09/05 09:23:19;;;;;;;3.47;3.10;;;25.50;99.90;;;;;;5084255;28;20221;-78
2021/09/05 09:26:03;;;;;;;4.07;3.70;;;25.50;99.90;;;;;;5086513;28;20222;-78
2021/09/05 09:28:37;;;;;;;3.92;3.53;;;25.50;99.90;;;;;;5083900;28;20217;-79
2021/09/05 09:31:12;;;;;;;3.55;3.25;;;25.60;99.90;;;;;;5089748;28;20216;-78
2021/09/05 09:33:40;;;;;;;3.67;3.38;;;25.60;99.90;;;;;;5075688;28;20221;-77
2021/09/05 09:36:09;;;;;;;3.50;3.25;;;25.70;99.90;;;;;;5086851;28;20229;-77
2021/09/05 09:38:37;;;;;;;3.55;3.05;;;25.80;99.90;;;;;;5085794;28;20687;-77
2021/09/05 09:41:12;;;;;;;3.88;3.58;;;26.00;99.90;;;;;;5088299;28;20221;-77
2021/09/05 09:43:53;;;;;;;3.85;3.55;;;26.00;99.90;;;;;;5086173;28;20629;-77
2021/09/05 09:46:22;;;;;;;3.70;3.40;;;26.10;99.90;;;;;;5083886;28;20213;-78
2021/09/05 09:48:51;;;;;;;3.47;3.17;;;26.00;99.90;;;;;;5084383;28;20562;-77
2021/09/05 09:51:19;;;;;;;3.53;3.22;;;26.00;99.90;;;;;;5087021;28;20236;-77
2021/09/05 09:53:47;;;;;;;3.78;3.47;;;26.10;99.90;;;;;;5086940;28;20767;-77
2021/09/05 09:56:16;;;;;;;3.72;3.38;;;26.30;99.90;;;;;;5083997;28;20214;-77
2021/09/05 09:58:44;;;;;;;3.78;3.33;;;26.40;99.90;;;;;;5086018;28;20278;-76
2021/09/05 10:01:15;;;;;;;3.50;3.20;;;26.20;99.90;;;;;;5085743;28;20651;-77
2021/09/05 10:03:43;;;;;;;3.55;3.28;;;26.10;99.90;;;;;;5087600;28;20285;-77
2021/09/05 10:06:12;;;;;;;3.40;3.20;;;26.20;99.90;;;;;;5088874;28;20718;-77
2021/09/05 10:08:40;;;;;;;3.60;3.30;;;26.10;99.90;;;;;;5088306;28;20721;-76
2021/09/05 10:11:09;;;;;;;3.50;3.20;;;26.00;99.90;;;;;;5088955;28;20229;-77
2021/09/05 10:13:39;;;;;;;3.42;3.22;;;26.10;99.90;;;;;;5100167;28;20217;-76
2021/09/05 10:16:07;;;;;;;3.22;2.92;;;26.20;99.90;;;;;;5087546;28;20221;-77
2021/09/05 10:18:40;;;;;;;3.70;3.40;;;26.30;99.90;;;;;;5085697;28;20221;-77
2021/09/05 10:21:08;;;;;;;3.67;3.38;;;26.50;99.90;;;;;;5085766;28;20298;-78
2021/09/05 10:23:36;;;;;;;3.35;3.05;;;26.70;99.90;;;;;;5086099;28;20333;-77
2021/09/05 10:26:06;;;;;;;3.03;2.83;;;26.80;99.90;;;;;;5085886;28;20229;-77
2021/09/05 10:28:35;;;;;;;2.90;2.70;;;26.40;99.90;;;;;;5085015;28;20221;-77
2021/09/05 10:31:02;;;;;;;3.05;2.85;;;26.40;99.90;;;;;;5084555;28;20225;-77
2021/09/05 10:33:36;;;;;;;3.47;2.92;;;26.30;99.90;;;;;;5087508;28;20714;-77
2021/09/05 10:36:09;;;;;;;3.42;3.13;;;26.50;99.90;;;;;;5078651;28;20232;-77
2021/09/05 10:38:37;;;;;;;2.80;2.60;;;26.50;99.90;;;;;;5081941;28;20226;-76
2021/09/05 10:41:09;;;;;;;3.20;2.60;;;26.60;99.90;;;;;;5086176;28;20229;-78
2021/09/05 10:44:05;;;;;;;2.63;2.42;;;26.80;99.90;;;;;;5087494;28;20213;-77
2021/09/05 10:46:36;;;;;;;3.20;2.92;;;26.80;99.90;;;;;;5087470;28;20603;-76
2021/09/05 10:49:05;;;;;;;3.05;2.75;;;27.00;99.90;;;;;;5086539;28;20650;-77
2021/09/05 10:51:36;;;;;;;2.78;2.42;;;27.00;99.90;;;;;;5087350;28;20646;-77
2021/09/05 10:54:05;;;;;;;2.95;2.75;;;26.90;99.90;;;;;;5088103;28;20584;-77
2021/09/05 10:56:34;;;;;;;3.03;2.83;;;26.90;99.90;;;;;;5083336;28;20226;-76
2021/09/05 10:59:04;;;;;;;2.60;2.40;;;27.00;99.90;;;;;;5078618;28;20310;-76
2021/09/05 11:01:33;;;;;;;4.07;2.60;;;26.90;99.90;;;;;;5086195;28;20225;-76
2021/09/05 11:04:42;;;;;;;3.40;3.10;;;27.00;99.90;;;;;;4987879;28;20230;-77
2021/09/05 11:07:31;;;;;;;3.55;3.08;;;27.00;99.90;;;;;;5003781;28;20214;-76
2021/09/05 11:09:58;;;;;;;3.13;2.75;;;26.80;99.90;;;;;;5063641;28;20703;-76
2021/09/05 11:12:44;;;;;;;3.47;3.17;;;26.90;99.90;;;;;;5083505;28;20225;-78
2021/09/05 11:15:21;;;;;;;4.65;3.17;;;27.10;99.90;;;;;;5087120;28;20286;-77
2021/09/05 11:17:56;;;;;;;3.35;3.05;;;26.90;99.90;;;;;;5088388;28;20308;-78
2021/09/05 11:20:25;;;;;;;3.55;3.25;;;26.90;99.90;;;;;;5085577;28;20224;-78
2021/09/05 11:22:56;;;;;;;3.47;3.20;;;27.00;99.90;;;;;;5084618;28;20290;-79
2021/09/05 11:25:25;;;;;;;3.72;3.42;;;27.00;99.90;;;;;;5079757;28;20302;-78
2021/09/05 11:55:02;;;;;;;3.60;3.30;;;28.20;99.90;;;;;;4956341;22;20496;-75
2021/09/05 11:57:30;;;;;;;3.83;3.53;;;28.20;99.90;;;;;;5086895;28;20217;-74
2021/09/05 11:59:59;;;;;;;4.75;3.72;;;28.00;99.90;;;;;;5090136;28;20225;-74
2021/09/05 12:02:31;;;;;;;4.18;3.78;;;28.00;99.90;;;;;;5094541;28;20233;-75
2021/09/05 12:04:58;;;;;;;4.00;3.67;;;27.90;99.90;;;;;;5091881;28;20241;-74
2021/09/05 12:07:29;;;;;;;4.47;3.50;;;28.00;99.90;;;;;;5092642;28;20224;-75
2021/09/05 12:10:09;;;;;;;3.92;3.63;;;28.00;99.90;;;;;;5087576;28;20626;-74
2021/09/05 12:12:38;;;;;;;5.43;3.75;;;28.10;99.90;;;;;;5094797;28;20220;-75
2021/09/05 12:15:16;;;;;;;4.75;4.15;;;28.10;99.90;;;;;;5090822;28;20702;-72
2021/09/05 12:17:48;;;;;;;6.32;3.80;;;28.00;99.90;;;;;;5089335;28;20213;-75
2021/09/05 12:20:16;;;;;;;3.90;3.60;;;28.00;99.90;;;;;;5090883;28;20209;-75
2021/09/05 12:22:46;;;;;;;4.45;4.03;;;28.10;99.90;;;;;;5091213;28;20232;-73
2021/09/05 12:25:18;;;;;;;4.40;4.00;;;28.10;99.90;;;;;;5093589;28;20220;-75
2021/09/05 12:27:56;;;;;;;3.85;3.45;;;28.10;99.90;;;;;;5095884;28;20303;-75
2021/09/05 12:30:25;;;;;;;3.70;3.40;;;28.20;99.90;;;;;;5092610;28;20265;-74
2021/09/05 12:33:10;;;;;;;4.60;4.05;;;28.20;99.90;;;;;;5089279;28;20282;-74
2021/09/05 12:35:37;;;;;;;3.95;3.55;;;28.30;99.90;;;;;;5096176;28;20293;-75
2021/09/05 12:38:09;;;;;;;3.95;3.65;;;28.30;99.90;;;;;;5091080;28;20217;-75
2021/09/05 12:40:41;;;;;;;3.65;3.35;;;28.20;99.90;;;;;;5094229;28;20240;-75
2021/09/05 12:43:09;;;;;;;5.43;3.92;;;28.30;99.90;;;;;;5090267;28;20226;-76
2021/09/05 12:45:37;;;;;;;4.10;3.58;;;28.30;99.90;;;;;;5093712;28;20221;-75
2021/09/05 12:48:18;;;;;;;3.90;3.40;;;28.30;99.90;;;;;;5091908;28;20274;-75
2021/09/05 12:50:47;;;;;;;4.55;3.80;;;28.30;99.90;;;;;;5094491;28;20262;-75
2021/09/05 12:53:17;;;;;;;3.55;3.25;;;28.30;99.90;;;;;;5093082;28;20271;-76
2021/09/05 12:55:46;;;;;;;3.90;3.47;;;28.30;99.90;;;;;;5089581;28;20285;-75
2021/09/05 12:58:13;;;;;;;3.85;3.55;;;28.20;99.90;;;;;;5091213;28;20760;-74
2021/09/05 13:00:41;;;;;;;4.30;3.90;;;27.90;99.90;;;;;;5091031;28;20289;-77
2021/09/05 13:03:08;;;;;;;4.03;3.70;;;27.90;99.90;;;;;;5092915;28;20229;-76
2021/09/05 13:05:36;;;;;;;3.80;3.50;;;27.60;99.90;;;;;;5089533;28;20282;-75
2021/09/05 13:08:04;;;;;;;5.78;3.53;;;27.30;99.90;;;;;;5095427;28;20225;-75
2021/09/05 13:10:31;;;;;;;4.15;3.83;;;27.00;99.90;;;;;;5087206;28;20221;-76
2021/09/05 13:13:00;;;;;;;4.03;3.72;;;27.10;99.90;;;;;;5095246;28;20227;-75
2021/09/05 13:15:27;;;;;;;4.05;3.75;;;27.10;99.90;;;;;;5090592;28;20225;-74
2021/09/05 13:17:54;;;;;;;4.28;3.88;;;27.00;99.90;;;;;;5092221;28;20232;-74
2021/09/05 13:20:22;;;;;;;3.90;3.60;;;27.00;99.90;;;;;;5090637;28;20236;-75
2021/09/05 13:22:50;;;;;;;4.20;3.80;;;27.20;99.90;;;;;;5092670;28;20565;-74
2021/09/05 13:25:17;;;;;;;4.07;3.33;;;27.20;99.90;;;;;;5097975;28;20217;-74
2021/09/05 13:27:44;;;;;;;4.25;3.85;;;27.10;99.90;;;;;;5090595;28;20205;-74
2021/09/05 13:30:13;;;;;;;4.00;3.70;;;27.00;99.90;;;;;;5088244;28;20225;-75
2021/09/05 13:32:40;;;;;;;4.25;3.92;;;26.80;99.90;;;;;;5099112;28;20235;-74
2021/09/05 13:35:08;;;;;;;7.32;3.83;;;26.60;99.90;;;;;;5089974;28;20347;-75
2021/09/05 13:37:36;;;;;;;4.28;3.40;;;26.50;99.90;;;;;;5094093;28;20225;-75
2021/09/05 13:40:04;;;;;;;3.80;3.50;;;26.30;99.90;;;;;;5101502;27;20313;-75
2021/09/05 13:42:32;;;;;;;4.18;3.60;;;26.30;99.90;;;;;;5092944;28;20290;-77
2021/09/05 13:44:59;;;;;;;3.97;3.67;;;26.20;99.90;;;;;;5093848;28;20285;-77
2021/09/05 13:47:27;;;;;;;4.15;3.85;;;26.10;99.90;;;;;;5090923;28;20760;-75
2021/09/05 13:49:55;;;;;;;4.80;4.15;;;26.30;99.90;;;;;;5093719;28;20649;-75
2021/09/05 13:52:24;;;;;;;4.05;3.75;;;26.40;99.90;;;;;;5094215;28;20801;-75
2021/09/05 13:54:51;;;;;;;4.22;3.65;;;26.40;99.90;;;;;;5091459;28;20236;-75
2021/09/05 13:57:18;;;;;;;4.07;3.70;;;26.20;99.90;;;;;;5095395;28;20221;-75
2021/09/05 13:59:45;;;;;;;4.00;3.70;;;26.10;99.90;;;;;;5089488;28;20217;-74
2021/09/05 14:02:13;;;;;;;4.32;3.92;;;26.10;99.90;;;;;;5098516;28;20747;-75
2021/09/05 14:04:41;;;;;;;3.92;3.63;;;26.30;99.90;;;;;;5085903;28;20233;-75
2021/09/05 14:07:08;;;;;;;4.10;3.70;;;26.40;99.90;;;;;;5089927;28;20228;-75
2021/09/05 14:09:35;;;;;;;4.60;4.18;;;26.70;99.90;;;;;;5090074;28;20270;-77
2021/09/05 14:12:02;;;;;;;4.88;4.38;;;27.00;99.90;;;;;;5090198;28;20247;-75
2021/09/05 14:14:30;;;;;;;5.45;3.53;;;27.00;99.90;;;;;;5094013;28;20321;-75
2021/09/05 14:16:57;;;;;;;3.40;3.10;;;27.10;99.90;;;;;;5090434;28;20224;-74
2021/09/05 14:19:24;;;;;;;3.95;3.55;;;27.20;99.90;;;;;;5094187;28;20217;-74
2021/09/05 14:21:52;;;;;;;4.18;3.78;;;27.30;99.90;;;;;;5092078;28;20312;-75
2021/09/05 14:24:20;;;;;;;3.60;3.30;;;27.40;99.90;;;;;;5086763;28;20262;-76
2021/09/05 14:26:53;;;;;;;6.80;4.32;;;27.40;99.90;;;;;;5085134;28;20225;-77
2021/09/05 14:29:26;;;;;;;4.05;3.65;;;27.40;99.90;;;;;;5082434;28;20218;-76
2021/09/05 14:31:57;;;;;;;4.25;3.95;;;27.30;99.90;;;;;;5081243;28;20241;-75
2021/09/05 14:34:43;;;;;;;4.22;3.67;;;27.20;99.90;;;;;;5086143;28;20296;-77
2021/09/05 14:48:17;;;;;;;4.00;3.60;;;27.50;99.90;;;;;;5087593;28;20227;-75
2021/09/05 14:56:20;;;;;;;4.07;3.70;;;27.50;99.90;;;;;;5047695;28;20225;-76
2021/09/05 14:58:54;;;;;;;4.40;4.00;;;27.40;99.90;;;;;;5083194;28;20218;-77
2021/09/05 15:01:25;;;;;;;4.13;3.72;;;27.30;99.90;;;;;;5085470;28;22488;-77
2021/09/05 15:03:57;;;;;;;4.40;4.00;;;27.30;99.90;;;;;;5091395;28;20597;-74
2021/09/05 15:06:35;;;;;;;4.18;3.88;;;27.20;99.90;;;;;;5087891;28;20225;-77
2021/09/05 15:11:48;;;;;;;4.75;4.25;;;27.00;99.90;;;;;;5094088;28;20327;-76
2021/09/05 15:14:15;;;;;;;4.60;4.20;;;26.60;99.90;;;;;;5086846;28;20224;-77
2021/09/05 15:16:42;;;;;;;4.25;3.85;;;26.50;99.90;;;;;;5087971;28;20225;-77
2021/09/05 15:19:09;;;;;;;4.10;3.70;;;26.40;99.90;;;;;;5088524;28;20220;-77
2021/09/05 15:21:44;;;;;;;5.88;3.83;;;26.40;99.90;;;;;;5090372;28;20212;-77
2021/09/05 15:24:12;;;;;;;6.30;4.15;;;26.40;99.90;;;;;;5089317;28;20218;-77
2021/09/05 15:26:39;;;;;;;6.40;4.20;;;26.20;99.90;;;;;;5083935;28;20710;-75
2021/09/05 15:29:20;;;;;;;6.28;4.28;;;26.10;99.90;;;;;;5083098;28;20229;-76
2021/09/05 15:31:52;;;;;;;4.45;4.05;;;25.70;99.90;;;;;;5090909;28;20220;-77
2021/09/05 15:51:17;;;;;;;4.85;4.20;;;24.80;99.90;;;;;;5080620;28;20215;-76
2021/09/05 15:53:48;;;;;;;4.90;4.40;;;24.70;99.90;;;;;;5085024;28;20219;-77
2021/09/05 15:56:18;;;;;;;4.85;4.20;;;24.70;99.90;;;;;;5094580;28;20588;-77
2021/09/05 15:58:48;;;;;;;5.25;4.10;;;24.70;99.90;;;;;;5089217;28;20221;-77
2021/09/05 16:01:24;;;;;;;4.63;4.22;;;24.60;99.90;;;;;;5090617;28;20217;-77
2021/09/05 16:17:56;;;;;;;4.72;4.22;;;24.30;99.90;;;;;;5086383;28;20704;-76
2021/09/05 16:20:23;;;;;;;4.97;4.47;;;24.20;99.90;;;;;;5090430;28;20217;-76
2021/09/05 16:22:51;;;;;;;4.80;4.13;;;24.20;99.90;;;;;;5091389;28;20232;-76
2021/09/05 16:25:18;;;;;;;4.40;4.00;;;24.20;99.90;;;;;;5089745;28;20797;-76
2021/09/05 16:27:48;;;;;;;5.07;4.50;;;24.20;99.90;;;;;;5091499;28;20541;-76
2021/09/05 16:30:18;;;;;;;5.07;4.20;;;24.10;99.90;;;;;;5087769;28;20263;-77
2021/09/05 16:32:57;;;;;;;4.25;3.95;;;24.10;99.90;;;;;;5093499;28;20218;-77
2021/09/05 16:35:30;;;;;;;6.70;4.40;;;24.10;99.90;;;;;;5090884;28;20228;-76
2021/09/05 16:40:39;;;;;;;5.03;4.63;;;24.00;99.90;;;;;;5086761;28;20217;-76
2021/09/05 16:43:07;;;;;;;5.03;4.57;;;24.00;99.90;;;;;;5089828;28;20224;-76
2021/09/05 16:45:36;;;;;;;5.72;4.13;;;23.90;99.90;;;;;;5089988;28;20221;-77
2021/09/05 16:48:04;;;;;;;3.97;3.60;;;23.80;99.90;;;;;;5086263;28;20231;-77
2021/09/05 16:50:31;;;;;;;4.53;3.92;;;23.80;99.90;;;;;;5092388;28;20221;-76
2021/09/05 16:52:59;;;;;;;5.38;4.30;;;23.70;99.90;;;;;;5094717;28;20225;-76
2021/09/05 16:55:27;;;;;;;5.30;4.80;;;23.70;99.90;;;;;;5089590;28;20654;-77